Airfield :
LOGIN :

Register | Disclaimer

   EN    FR    IT 

 










Legend :    VFR   Marginal VFR   IFR   Intensive IFR   Very Intensive IFR
Visi :
Ceiling :
>= 8 km
>= 3000ft
5 to 8 km
1000 to 3000 ft
1500m to 5 km
500 to 1000 ft
800 to 1500m
200 to 500 ft
< 800m
< 200 ft
Symbols :   Thunderstorms  Fog  Heavy snow  Heavy precipitations  Wind > 20 kt
SIGMETs :     Misc.  Thunderstorms  Icing  Turbulence  Mountain Waves  Volcanic Ashes






- Airport Elevation : 1299 ft


EDTY - Adolf Würth

CURRENT METAR :
  • 201520Z 06008KT 040V100 CAVOK 22/11 Q1009

EXPIRED METARs :
  • 201450Z 05007KT CAVOK 22/12 Q1009
  • 201420Z 05005KT 340V120 CAVOK 22/12 Q1010
  • 201350Z 05006KT 360V110 CAVOK 22/11 Q1010
  • 201320Z VRB01KT CAVOK 22/12 Q1010
  • 201250Z VRB04KT CAVOK 21/10 Q1011
  • 201220Z 09005KT 050V200 CAVOK 21/11 Q1011
  • 201150Z VRB04KT 9999 FEW045 21/10 Q1011
  • 201120Z 05005KT 360V130 9999 FEW041 19/12 Q1011
  • 201050Z 04004KT 330V100 CAVOK 20/13 Q1011

TAF TAF EDTY
Valid from the 20 at 15:00 until the 21 at 00:00 UTC


201400Z 2015/2024 VRB02KT CAVOK
TEMPO 2015/2024 02005KT



MET'MAP, your aeronautical weather chart ! - Copyright ORBIFLY December 2007 - Disclaimer

ORBIFLY MET'MAP TEAM :

Programming & Development : Alexandra Zaïnal
Original concept : Baudouin d'Aumeries
Technical & hardware support : Manuel Goepfert
Assistance : Marc-Olivier Méhu




SOURCES & CREDITS :

   NOAA